Rumpus Ridge, South Dakota
Current Conditions -  °F | °C
As of 7:56 PM on Wednesday 22 Oct 2014 (Local Time) from KFSD Reporting Station
Overcast Overcast  
Wind Chill: 14°   Ceiling: 700
Heat Index: 14°   Visibility: 10mi
Dew Point: 13°   Wind: 7mph
Humidity: 93%   Direction: 250°WSW
Pressure: 30"   Gusts: NA
Location:  43.5855°N, 97.3085°W
Report Text: KFSD 230056Z 25006KT 10SM BKN007 BKN042 OVC075 14/13 A3000 RMK AO2 CIG 006V011 SLP162 T01390128
Loading
Personal Weather Stations






























Interactive Weather Map
Tropical Storm Tracking
New forecast layout! Learn more

10-Day Weather Forecast

Advertisements
Track Severe Weather on mobile